Time;durP1;ratioP1;P1;durP2;ratioP2;P2;SDS_P1;SDS_P2;PMS_P1;PMS_P2;Temp;Humidity;BMP_temperature;BMP_pressure;BME280_temperature;BME280_humidity;BME280_pressure;Samples;Min_cycle;Max_cycle;Signal;HPM_P1;HPM_P2
2022/02/09 00:10:59;;;;;;;;;42.33;42.33;;;;;1.23;99.37;100926.84;6307310;22;8783;-73
2022/02/09 00:14:00;;;;;;;;;39.67;36.00;;;;;1.19;100.00;100931.16;6307043;22;8771;-73
2022/02/09 00:23:51;;;;;;;;;72.67;58.33;;;;;1.21;98.19;100933.63;6307009;22;8768;-73
2022/02/09 00:27:19;;;;;;;;;67.33;57.00;;;;;1.13;98.82;100936.84;6307202;22;8787;-73
2022/02/09 00:43:20;;;;;;;;;62.67;51.33;;;;;1.11;97.86;100932.47;6306797;22;9497;-73
2022/02/09 01:56:37;;;;;;;;;50.00;44.67;;;;;1.25;85.24;100954.63;6306489;22;8814;-74
2022/02/09 01:59:33;;;;;;;;;38.33;35.33;;;;;1.11;84.22;100954.25;6306693;22;8852;-73
2022/02/09 02:02:28;;;;;;;;;47.00;43.33;;;;;1.05;84.18;100951.75;6306311;22;8986;-74
2022/02/09 02:05:24;;;;;;;;;53.33;46.00;;;;;1.11;83.97;100957.00;6306505;22;8814;-74
2022/02/09 02:08:21;;;;;;;;;34.67;32.67;;;;;1.05;84.28;100959.94;6306372;22;8783;-73
2022/02/09 02:11:32;;;;;;;;;49.33;45.67;;;;;1.07;85.04;100965.94;6323610;22;8776;-73
2022/02/09 02:14:35;;;;;;;;;49.33;45.33;;;;;1.01;84.07;100961.56;6306605;22;8799;-73
2022/02/09 02:17:35;;;;;;;;;40.33;39.00;;;;;1.14;84.91;100965.72;6309582;22;8803;-73
2022/02/09 02:20:42;;;;;;;;;41.33;34.00;;;;;1.10;84.04;100963.53;6308219;22;8810;-73
2022/02/09 02:23:56;;;;;;;;;36.67;33.67;;;;;1.00;83.43;100957.19;6308065;22;9535;-73
2022/02/09 02:39:13;;;;;;;;;43.00;40.00;;;;;0.90;82.86;100967.97;6308081;22;8882;-73
2022/02/09 03:13:56;;;;;;;;;64.00;51.67;;;;;0.86;82.65;100967.69;6307696;22;8815;-72
2022/02/09 03:17:01;;;;;;;;;75.67;59.67;;;;;0.73;82.85;100968.94;6305513;22;8952;-73
2022/02/09 03:20:46;;;;;;;;;52.67;47.00;;;;;0.68;82.42;100973.50;6307539;22;8780;-72
2022/02/09 03:52:02;;;;;;;;;44.00;40.33;;;;;0.58;82.82;100997.91;6307189;22;8802;-73
2022/02/09 03:58:03;;;;;;;;;32.33;32.00;;;;;0.74;82.35;100999.69;6307373;22;8779;-72
2022/02/09 04:00:58;;;;;;;;;36.67;30.33;;;;;0.72;82.66;101008.13;6307303;22;8811;-72
2022/02/09 04:03:54;;;;;;;;;44.00;41.33;;;;;0.56;81.96;101000.91;6307403;22;8815;-74
2022/02/09 04:06:51;;;;;;;;;25.33;25.33;;;;;0.61;82.04;101003.66;6307241;22;8815;-73
2022/02/09 04:09:50;;;;;;;;;40.67;35.00;;;;;0.56;81.98;101006.34;6307356;22;8784;-73
2022/02/09 04:13:02;;;;;;;;;49.33;43.00;;;;;0.50;82.21;101004.63;6307309;22;8775;-73
2022/02/09 04:16:13;;;;;;;;;41.00;41.00;;;;;0.48;82.80;101002.19;6307221;22;9468;-72
2022/02/09 04:45:29;;;;;;;;;66.67;56.67;;;;;0.33;83.25;101022.97;6306619;22;8848;-72
2022/02/09 04:57:06;;;;;;;;;59.33;49.33;;;;;0.39;82.57;101030.13;6306688;22;8936;-72
2022/02/09 05:24:23;;;;;;;;;73.00;60.67;;;;;0.36;80.47;101057.81;6306902;22;8822;-73
2022/02/09 05:29:26;;;;;;;;;91.33;70.00;;;;;0.52;80.33;101046.84;6304683;22;8795;-72
2022/02/09 05:31:54;;;;;;;;;88.33;69.33;;;;;0.66;79.75;101060.06;6315703;22;8786;-71
2022/02/09 05:34:22;;;;;;;;;90.00;67.67;;;;;0.63;78.17;101066.03;6315705;22;8783;-71
2022/02/09 05:36:49;;;;;;;;;95.00;69.00;;;;;0.58;77.88;101072.22;6315215;22;8790;-72
2022/02/09 05:39:45;;;;;;;;;82.00;65.00;;;;;0.67;79.15;101075.31;6323710;22;9541;-72
2022/02/09 05:42:41;;;;;;;;;89.67;67.00;;;;;0.68;80.25;101075.03;6306539;22;8775;-72
2022/02/09 05:51:19;;;;;;;;;64.00;53.00;;;;;0.93;80.46;101090.03;6308608;22;8838;-71
2022/02/09 05:56:42;;;;;;;;;63.67;52.33;;;;;0.96;79.22;101089.50;6317486;22;8948;-71
2022/02/09 06:01:37;;;;;;;;;35.67;35.67;;;;;1.10;78.62;101098.91;6316650;22;8780;-71
2022/02/09 06:04:06;;;;;;;;;37.00;33.67;;;;;1.03;77.61;101109.19;6315738;22;8912;-71
2022/02/09 06:06:37;;;;;;;;;29.00;29.00;;;;;0.97;77.91;101102.03;6310431;22;8857;-72
2022/02/09 06:09:05;;;;;;;;;32.00;32.00;;;;;1.02;78.10;101113.00;6332351;22;12232;-71
2022/02/09 06:11:50;;;;;;;;;36.00;31.00;;;;;1.04;76.92;101108.94;6316937;22;11475;-71
2022/02/09 06:22:12;;;;;;;;;40.33;33.33;;;;;1.28;76.89;101114.06;6308285;22;11494;-71
2022/02/09 06:24:42;;;;;;;;;31.33;31.33;;;;;1.36;76.17;101110.84;6317294;22;11633;-71
2022/02/09 06:27:11;;;;;;;;;45.33;42.33;;;;;1.44;77.18;101112.28;6306842;22;11535;-71
2022/02/09 06:29:44;;;;;;;;;58.33;49.33;;;;;1.47;78.25;101114.50;6315380;22;8865;-73
2022/02/09 06:32:14;;;;;;;;;38.00;36.33;;;;;1.54;78.04;101120.56;6317178;22;8768;-72
2022/02/09 06:34:43;;;;;;;;;34.00;33.00;;;;;1.69;78.86;101123.41;6341130;22;11487;-73
2022/02/09 06:40:02;;;;;;;;;23.25;23.25;;;;;1.90;79.67;101132.53;6295818;22;11509;-70
2022/02/09 06:42:31;;;;;;;;;29.25;27.75;;;;;2.17;81.51;101140.66;6340227;22;11519;-73
2022/02/09 06:45:29;;;;;;;;;30.50;29.25;;;;;2.32;79.83;101140.72;6307318;22;11624;-75
2022/02/09 06:47:57;;;;;;;;;39.00;36.67;;;;;2.42;77.77;101139.94;6316687;22;11512;-74
2022/02/09 06:50:57;;;;;;;;;38.75;33.00;;;;;2.34;77.46;101144.00;6307779;22;11533;-74
2022/02/09 06:54:07;;;;;;;;;33.00;30.25;;;;;2.37;77.15;101146.19;6304979;22;11616;-74
2022/02/09 06:57:12;;;;;;;;;21.50;21.00;;;;;2.51;75.83;101143.81;6324818;22;11518;-74
2022/02/09 07:00:08;;;;;;;;;32.25;31.50;;;;;2.51;76.70;101150.09;6307069;22;11503;-75
2022/02/09 07:03:04;;;;;;;;;28.50;27.75;;;;;2.40;76.46;101153.88;6308844;22;11530;-75
2022/02/09 07:06:00;;;;;;;;;23.75;23.75;;;;;2.54;77.32;101146.03;6308322;22;11645;-73
2022/02/09 07:08:56;;;;;;;;;15.25;13.25;;;;;2.66;75.94;101156.72;6305266;22;11529;-73
2022/02/09 07:11:51;;;;;;;;;25.75;24.75;;;;;2.83;75.84;101156.50;6307660;22;11615;-75
2022/02/09 07:14:48;;;;;;;;;18.75;18.75;;;;;3.05;74.50;101159.84;6306423;22;11490;-74
2022/02/09 07:17:54;;;;;;;;;20.00;19.25;;;;;3.16;74.87;101153.34;6308134;22;11496;-73
2022/02/09 07:23:50;;;;;;;;;11.00;11.00;;;;;3.39;72.78;101160.22;6307156;22;11509;-73
2022/02/09 07:29:41;;;;;;;;;22.25;22.25;;;;;3.14;73.25;101144.56;6307331;22;11612;-72
2022/02/09 07:32:37;;;;;;;;;34.00;32.75;;;;;3.25;73.39;101150.91;6307192;22;11521;-73
2022/02/09 07:35:33;;;;;;;;;4.75;1.75;;;;;3.26;72.90;101153.34;6306655;22;11487;-73
2022/02/09 07:38:29;;;;;;;;;33.00;32.75;;;;;3.52;72.32;101153.38;6324718;22;11445;-73
2022/02/09 07:41:24;;;;;;;;;30.25;27.50;;;;;3.66;72.29;101159.13;6324871;22;11547;-72
2022/02/09 07:47:06;;;;;;;;;23.75;23.75;;;;;4.18;71.07;101156.09;6306790;22;11488;-73
2022/02/09 07:53:44;;;;;;;;;16.50;16.50;;;;;4.65;68.76;101157.59;6274359;22;11527;-73
2022/02/09 07:56:43;;;;;;;;;18.00;18.00;;;;;4.66;66.57;101168.25;6306742;22;11500;-73
2022/02/09 07:59:38;;;;;;;;;19.75;19.75;;;;;4.78;66.58;101169.88;6306468;22;11553;-72
2022/02/09 08:02:34;;;;;;;;;22.75;22.75;;;;;4.81;67.17;101169.31;6306768;22;11479;-72
2022/02/09 08:05:31;;;;;;;;;19.00;19.00;;;;;4.83;66.10;101169.84;6306481;22;11504;-69
2022/02/09 08:08:30;;;;;;;;;20.50;20.50;;;;;4.73;66.73;101185.22;6306795;22;11484;-70
2022/02/09 08:11:55;;;;;;;;;21.25;19.50;;;;;4.67;66.29;101194.56;6306681;22;11557;-70
2022/02/09 08:25:01;;;;;;;;;10.25;10.00;;;;;4.71;64.82;101203.06;6305975;22;12210;-71
2022/02/09 08:27:56;;;;;;;;;14.25;14.25;;;;;4.51;67.08;101198.44;6305912;22;11489;-70
2022/02/09 08:33:50;;;;;;;;;11.50;11.50;;;;;4.74;67.05;101197.00;6305375;22;12391;-70
2022/02/09 08:36:46;;;;;;;;;14.25;14.25;;;;;4.69;66.12;101203.34;6306435;22;11459;-70
2022/02/09 08:39:41;;;;;;;;;13.00;13.00;;;;;4.59;67.21;101200.63;6306211;22;12289;-70
2022/02/09 08:42:38;;;;;;;;;23.75;23.75;;;;;4.59;69.30;101206.09;6306315;22;11477;-70
2022/02/09 08:45:33;;;;;;;;;22.25;21.25;;;;;4.61;67.01;101203.09;6306167;22;11613;-70
2022/02/09 08:48:29;;;;;;;;;22.25;21.25;;;;;4.49;66.71;101205.31;6306391;22;11486;-70
2022/02/09 08:51:27;;;;;;;;;12.25;12.25;;;;;4.51;66.40;101203.91;6306268;22;11562;-69
2022/02/09 08:54:23;;;;;;;;;15.25;15.25;;;;;4.54;65.78;101211.59;6305650;22;12161;-70
2022/02/09 08:57:21;;;;;;;;;8.75;8.75;;;;;4.40;65.82;101210.53;6306208;22;11595;-70
2022/02/09 09:00:27;;;;;;;;;13.50;12.00;;;;;4.22;65.90;101216.56;6306171;22;11471;-69
2022/02/09 09:03:27;;;;;;;;;8.50;8.50;;;;;4.51;67.56;101203.09;6306349;22;11477;-69
2022/02/09 09:06:26;;;;;;;;;13.00;12.25;;;;;4.39;64.94;101217.13;6306026;22;11472;-71
2022/02/09 09:16:34;;;;;;;;;13.25;13.25;;;;;4.57;66.23;101216.50;6306383;22;11429;-70
2022/02/09 10:03:13;;;;;;;;;10.75;10.50;;;;;7.60;57.31;101192.47;6305836;22;11413;-71
2022/02/09 10:32:38;;;;;;;;;6.25;6.25;;;;;7.97;58.30;101192.38;6315472;22;10896;-73
2022/02/09 10:35:30;;;;;;;;;12.00;12.00;;;;;8.57;55.27;101197.16;6315367;22;10922;-73
2022/02/09 10:38:01;;;;;;;;;9.25;9.00;;;;;8.32;58.12;101190.16;6316803;22;10891;-75
2022/02/09 10:40:35;;;;;;;;;12.25;9.25;;;;;7.80;57.33;101189.38;6316797;22;10753;-75
2022/02/09 10:43:33;;;;;;;;;12.50;12.50;;;;;7.06;57.32;101180.03;6307614;22;11525;-75
2022/02/09 10:46:29;;;;;;;;;12.75;12.75;;;;;7.57;57.20;101188.34;6308235;22;11108;-73
2022/02/09 10:49:30;;;;;;;;;13.50;11.00;;;;;7.47;59.55;101185.75;6305830;22;11289;-75
2022/02/09 10:52:40;;;;;;;;;13.75;13.75;;;;;7.52;61.02;101177.44;6307343;22;11079;-73
2022/02/09 10:55:44;;;;;;;;;16.50;16.50;;;;;7.67;57.98;101188.22;6307557;22;11041;-74
2022/02/09 10:58:40;;;;;;;;;22.50;22.50;;;;;7.78;58.99;101189.69;6307719;22;11152;-75
2022/02/09 11:01:38;;;;;;;;;31.75;31.25;;;;;7.60;59.42;101185.03;6307302;22;11448;-75
2022/02/09 11:04:33;;;;;;;;;18.75;17.25;;;;;7.62;61.69;101181.97;6305435;22;11452;-73
2022/02/09 11:07:29;;;;;;;;;25.50;22.00;;;;;7.19;63.18;101191.09;6307219;22;11548;-74
2022/02/09 11:10:25;;;;;;;;;17.75;16.25;;;;;7.58;63.04;101189.16;6307456;22;11414;-74
2022/02/09 11:13:21;;;;;;;;;24.75;21.25;;;;;7.93;62.74;101188.63;6306592;22;11426;-75
2022/02/09 11:16:18;;;;;;;;;17.75;17.00;;;;;8.19;61.35;101197.25;6307384;22;11483;-74
2022/02/09 11:19:16;;;;;;;;;21.25;21.25;;;;;7.77;64.45;101188.03;6307174;22;11125;-74
2022/02/09 11:22:17;;;;;;;;;27.75;26.50;;;;;7.81;63.58;101186.31;6306706;22;11465;-69
2022/02/09 11:25:27;;;;;;;;;37.00;31.25;;;;;7.76;63.33;101199.38;6307445;22;11622;-71
2022/02/09 11:28:31;;;;;;;;;23.75;23.75;;;;;7.63;63.57;101194.59;6307265;22;11441;-70
2022/02/09 11:31:34;;;;;;;;;31.00;29.75;;;;;7.44;63.82;101194.63;6307340;22;11484;-70
2022/02/09 11:41:18;;;;;;;;;22.75;21.00;;;;;7.30;65.71;101207.47;6306076;22;12172;-70
2022/02/09 11:44:50;;;;;;;;;24.75;22.25;;;;;7.03;63.44;101208.09;6307093;22;12120;-70
2022/02/09 12:10:42;;;;;;;;;15.00;15.00;;;;;6.29;67.63;101233.09;6307161;22;11452;-70
2022/02/09 12:13:57;;;;;;;;;15.50;15.50;;;;;6.09;66.99;101231.34;6307015;22;11464;-70
2022/02/09 12:20:35;;;;;;;;;14.75;14.75;;;;;6.39;66.90;101237.69;6307116;22;11529;-69
2022/02/09 12:23:40;;;;;;;;;19.25;16.75;;;;;6.16;67.15;101235.69;6306962;22;12144;-69
2022/02/09 12:26:36;;;;;;;;;15.50;15.50;;;;;6.06;67.02;101240.19;6308154;22;12276;-69
2022/02/09 12:29:35;;;;;;;;;14.25;14.25;;;;;6.10;68.05;101240.41;6306535;22;11427;-69
2022/02/09 12:32:32;;;;;;;;;20.25;16.00;;;;;6.12;67.36;101243.69;6306696;22;11434;-68
2022/02/09 12:35:28;;;;;;;;;10.50;10.50;;;;;6.20;67.90;101244.97;6306980;22;11511;-68
2022/02/09 12:38:30;;;;;;;;;15.25;15.25;;;;;6.07;68.75;101243.75;6306948;22;11388;-69
2022/02/09 12:41:26;;;;;;;;;19.50;19.50;;;;;6.12;67.78;101246.41;6306744;22;11425;-69
2022/02/09 12:44:23;;;;;;;;;13.25;13.25;;;;;6.09;68.36;101249.75;6306559;22;11417;-69
2022/02/09 12:46:53;;;;;;;;;13.75;12.50;;;;;5.71;68.78;101249.44;6307532;22;11476;-68
2022/02/09 12:49:21;;;;;;;;;15.00;15.00;;;;;5.86;68.89;101256.75;6316212;22;12291;-69
2022/02/09 12:51:51;;;;;;;;;22.50;20.75;;;;;5.77;68.94;101251.06;6316190;22;12102;-70
2022/02/09 12:54:19;;;;;;;;;13.25;13.25;;;;;5.98;69.88;101264.66;6316030;22;11495;-68
2022/02/09 12:56:53;;;;;;;;;17.50;17.50;;;;;5.74;70.81;101257.09;6316482;22;11517;-70
2022/02/09 12:59:22;;;;;;;;;26.50;24.25;;;;;5.81;71.95;101265.03;6315762;22;11577;-68
2022/02/09 13:01:57;;;;;;;;;18.75;18.75;;;;;5.73;73.01;101262.88;6316176;22;11491;-71
2022/02/09 13:04:32;;;;;;;;;20.00;20.00;;;;;5.81;72.26;101265.84;6313314;22;11497;-70
2022/02/09 13:07:28;;;;;;;;;27.00;25.50;;;;;5.87;72.53;101269.38;6304262;22;11537;-70
2022/02/09 13:10:37;;;;;;;;;28.00;26.25;;;;;5.69;72.53;101281.03;6307813;22;11515;-70
2022/02/09 13:13:42;;;;;;;;;21.75;21.75;;;;;5.57;73.39;101281.38;6322749;22;11534;-71
2022/02/09 14:34:48;;;;;;;;;51.00;45.00;;;;;4.46;81.75;101339.00;6307340;22;11596;-78
2022/02/09 14:56:19;;;;;;;;;58.50;49.50;;;;;4.18;83.72;101362.25;6307836;22;11585;-74
2022/02/09 14:59:28;;;;;;;;;55.00;45.00;;;;;4.30;83.43;101370.22;6307815;22;11611;-74
2022/02/09 15:08:37;;;;;;;;;62.25;52.25;;;;;4.10;84.65;101367.44;6307903;22;11510;-74
2022/02/09 15:11:39;;;;;;;;;49.50;44.25;;;;;4.13;85.00;101373.16;6307745;22;11485;-74
2022/02/09 15:24:06;;;;;;;;;67.00;54.50;;;;;4.13;84.19;101384.13;6307152;22;11579;-73
2022/02/09 15:27:03;;;;;;;;;69.50;57.25;;;;;4.16;84.53;101393.72;6306893;22;11519;-73
2022/02/09 15:29:58;;;;;;;;;60.75;50.25;;;;;4.07;84.99;101396.19;6304804;22;11573;-72
2022/02/09 15:32:56;;;;;;;;;46.75;42.75;;;;;4.25;84.88;101399.50;6307400;22;11521;-72
2022/02/09 15:35:57;;;;;;;;;58.25;47.50;;;;;4.18;85.30;101403.31;6307300;22;11584;-72
2022/02/09 15:38:52;;;;;;;;;51.50;45.00;;;;;4.07;86.12;101403.56;6324023;22;11531;-73
2022/02/09 16:07:08;;;;;;;;;59.33;49.67;;;;;4.06;86.05;101448.44;6306811;22;11507;-72
2022/02/09 16:09:58;;;;;;;;;57.75;48.50;;;;;3.90;87.31;101453.03;6306837;22;11535;-71
2022/02/09 16:22:35;;;;;;;;;51.75;46.50;;;;;4.01;86.60;101462.13;6306500;22;11607;-73
2022/02/09 16:44:43;;;;;;;;;51.00;45.25;;;;;3.98;88.39;101479.88;6306562;22;11514;-72
2022/02/09 16:50:49;;;;;;;;;39.25;31.50;;;;;3.96;88.46;101478.50;6306662;22;11523;-72
2022/02/09 17:19:10;;;;;;;;;39.00;37.25;;;;;3.98;89.43;101506.44;6306647;22;11550;-72
2022/02/09 17:22:08;;;;;;;;;35.50;35.50;;;;;4.06;89.18;101509.47;6306854;22;12216;-73
2022/02/09 17:25:04;;;;;;;;;45.25;41.50;;;;;4.09;89.49;101497.19;6324433;22;11620;-73
2022/02/09 17:28:00;;;;;;;;;55.75;47.25;;;;;4.07;89.35;101505.69;6306262;22;11516;-72
2022/02/09 17:31:06;;;;;;;;;46.75;42.25;;;;;4.10;89.45;101507.88;6323822;22;11578;-72
2022/02/09 17:53:25;;;;;;;;;39.25;37.75;;;;;4.03;90.70;101523.72;6307859;22;12817;-73
2022/02/09 17:56:23;;;;;;;;;44.00;40.75;;;;;3.97;90.76;101530.25;6308617;22;11570;-72
2022/02/09 17:59:24;;;;;;;;;41.25;38.00;;;;;3.94;90.96;101530.78;6308450;22;12281;-73
2022/02/09 18:02:20;;;;;;;;;33.25;32.25;;;;;4.08;90.90;101536.59;6308100;22;11505;-72
2022/02/09 18:05:22;;;;;;;;;45.50;41.75;;;;;4.08;90.56;101531.94;6307881;22;11600;-72
2022/02/09 18:08:30;;;;;;;;;43.25;40.75;;;;;4.11;90.38;101536.06;6308004;22;11546;-71
2022/02/09 18:31:15;;;;;;;;;41.75;40.50;;;;;3.98;90.90;101547.50;6278591;22;11488;-72
2022/02/09 18:43:40;;;;;;;;;41.25;40.25;;;;;3.68;92.59;101559.06;6307882;22;11529;-72
2022/02/09 18:57:39;;;;;;;;;32.50;32.50;;;;;3.67;92.55;101571.13;6307190;22;11601;-72
2022/02/09 19:00:24;;;;;;;;;28.50;28.25;;;;;3.67;93.04;101568.38;6307907;22;11495;-72
2022/02/09 19:06:38;;;;;;;;;35.00;34.25;;;;;3.62;94.21;101572.75;6307576;22;11565;-72
2022/02/09 19:16:04;;;;;;;;;36.50;33.50;;;;;3.76;93.38;101588.72;6307995;22;11601;-72
2022/02/09 19:40:39;;;;;;;;;38.25;36.25;;;;;4.06;92.32;101602.56;6307514;22;11565;-72
2022/02/09 19:48:13;;;;;;;;;32.75;28.00;;;;;4.19;91.58;101615.78;6308362;22;11537;-73
2022/02/09 19:57:28;;;;;;;;;28.25;24.50;;;;;4.23;90.78;101623.47;6307448;22;11540;-73
2022/02/09 20:00:27;;;;;;;;;30.00;30.00;;;;;4.17;90.98;101617.97;6307519;22;11608;-73
2022/02/09 20:03:22;;;;;;;;;35.25;34.75;;;;;4.18;91.54;101619.59;6306974;22;11619;-72
2022/02/09 20:06:18;;;;;;;;;28.50;27.25;;;;;4.22;91.16;101610.84;6307412;22;11549;-72
2022/02/09 20:09:14;;;;;;;;;30.50;29.75;;;;;4.27;91.09;101621.84;6307156;22;11521;-72
2022/02/09 20:12:10;;;;;;;;;26.00;25.00;;;;;4.39;90.88;101625.19;6308143;22;11510;-71
2022/02/09 20:15:17;;;;;;;;;29.25;27.50;;;;;4.35;90.67;101630.38;6324592;22;11583;-73
2022/02/09 20:18:12;;;;;;;;;37.75;37.00;;;;;4.32;90.96;101625.44;6307192;22;11521;-71
2022/02/09 20:21:08;;;;;;;;;27.50;27.50;;;;;4.19;90.80;101634.94;6306983;22;11534;-72
2022/02/09 20:24:08;;;;;;;;;32.00;31.75;;;;;4.19;90.84;101642.34;6304559;22;11598;-73
2022/02/09 20:27:05;;;;;;;;;22.50;22.50;;;;;4.15;91.24;101636.56;6307210;22;11523;-72
2022/02/09 20:30:04;;;;;;;;;30.25;30.25;;;;;4.16;90.89;101638.22;6307073;22;11502;-72
2022/02/09 20:33:06;;;;;;;;;23.25;22.75;;;;;4.13;90.40;101644.22;6306463;22;11573;-72
2022/02/09 20:36:05;;;;;;;;;15.75;13.50;;;;;4.19;90.31;101645.91;6304757;22;11475;-72
2022/02/09 20:39:04;;;;;;;;;41.25;35.00;;;;;4.15;90.50;101638.50;6307015;22;11502;-71
2022/02/09 20:42:01;;;;;;;;;33.00;31.50;;;;;4.18;90.20;101651.66;6306169;22;11521;-71
2022/02/09 20:45:08;;;;;;;;;25.25;23.50;;;;;4.13;90.61;101646.13;6306843;22;11497;-72
2022/02/09 20:48:07;;;;;;;;;24.00;21.50;;;;;4.17;90.96;101647.25;6304588;22;11520;-72
2022/02/09 20:51:03;;;;;;;;;19.50;19.50;;;;;4.06;90.91;101646.34;6306941;22;11491;-72
2022/02/09 20:53:59;;;;;;;;;14.25;14.25;;;;;4.30;89.63;101648.72;6304178;22;12237;-72
2022/02/09 20:56:54;;;;;;;;;18.75;18.75;;;;;4.23;89.64;101650.84;6308042;22;11669;-72
2022/02/09 20:59:53;;;;;;;;;25.75;22.75;;;;;4.18;89.42;101649.72;6306811;22;11514;-72
2022/02/09 21:03:02;;;;;;;;;20.75;20.75;;;;;4.07;89.79;101664.44;6306479;22;11506;-73
2022/02/09 21:12:11;;;;;;;;;14.50;13.75;;;;;4.00;90.51;101671.25;6306462;22;11498;-71
2022/02/09 21:15:36;;;;;;;;;29.00;29.00;;;;;3.95;89.79;101669.28;6306773;22;12190;-71
2022/02/09 21:52:13;;;;;;;;;16.00;13.00;;;;;4.05;87.02;101699.47;6306542;22;12335;-71
2022/02/09 21:54:19;;;;;;;;;15.00;15.00;;;;;3.93;86.66;101696.09;6306020;22;11611;-71
2022/02/09 22:22:51;;;;;;;;;31.25;31.25;;;;;3.80;87.73;101712.94;6306059;22;11496;-71
2022/02/09 22:33:18;;;;;;;;;21.75;21.25;;;;;3.71;88.83;101726.28;6306840;22;11523;-72
2022/02/09 22:57:42;;;;;;;;;23.00;21.50;;;;;3.67;87.36;101721.59;6308138;22;11585;-72
2022/02/09 23:13:38;;;;;;;;;15.75;15.75;;;;;3.71;87.54;101737.22;6307387;22;11488;-73
2022/02/09 23:17:03;;;;;;;;;18.75;18.75;;;;;3.73;87.29;101746.00;6307826;22;11575;-71
